createdAt,value
2023-04-26T00:02:21.216Z,7.47
2023-04-26T00:04:56.248Z,9.33
2023-04-26T00:07:24.948Z,6.90
2023-04-26T00:09:52.807Z,11.37
2023-04-26T00:12:20.187Z,7.10
2023-04-26T00:14:47.180Z,8.23
2023-04-26T00:17:14.231Z,5.70
2023-04-26T00:19:41.421Z,10.60
2023-04-26T00:22:08.873Z,8.83
2023-04-26T00:24:36.322Z,7.20
2023-04-26T00:27:08.975Z,8.50
2023-04-26T00:29:37.336Z,6.97
2023-04-26T00:32:04.687Z,11.03
2023-04-26T00:34:36.121Z,7.73
2023-04-26T00:37:04.826Z,11.70
2023-04-26T00:39:32.080Z,11.67
2023-04-26T00:41:59.099Z,6.10
2023-04-26T00:44:26.094Z,9.33
2023-04-26T00:46:54.125Z,8.40
2023-04-26T00:49:25.440Z,6.93
2023-04-26T00:51:53.688Z,7.40
2023-04-26T00:54:21.692Z,6.80
2023-04-26T00:56:52.092Z,11.10
2023-04-26T00:59:21.075Z,5.60
2023-04-26T01:01:49.177Z,8.07
2023-04-26T01:04:17.893Z,10.23
2023-04-26T01:06:45.998Z,6.40
2023-04-26T01:09:15.540Z,5.13
2023-04-26T01:11:43.831Z,7.90
2023-04-26T01:14:11.442Z,6.90
2023-04-26T01:16:40.890Z,8.23
2023-04-26T01:19:13.083Z,9.47
2023-04-26T01:21:41.619Z,10.03
2023-04-26T01:24:13.673Z,7.67
2023-04-26T01:26:46.567Z,9.47
2023-04-26T01:29:21.451Z,8.27
2023-04-26T01:31:49.167Z,9.27
2023-04-26T01:34:16.724Z,7.93
2023-04-26T01:36:43.689Z,8.77
2023-04-26T01:39:10.747Z,13.00
2023-04-26T01:41:37.923Z,10.53
2023-04-26T01:44:05.367Z,9.30
2023-04-26T01:46:32.439Z,9.60
2023-04-26T01:48:59.651Z,6.83
2023-04-26T01:51:27.199Z,11.97
2023-04-26T01:53:54.229Z,7.63
2023-04-26T01:56:23.908Z,9.87
2023-04-26T01:58:51.415Z,7.80
2023-04-26T02:01:18.768Z,8.77
2023-04-26T02:03:45.804Z,10.40
2023-04-26T02:06:12.752Z,7.10
2023-04-26T02:08:39.699Z,8.83
2023-04-26T02:11:07.258Z,11.17
2023-04-26T02:13:34.318Z,8.60
2023-04-26T02:16:01.273Z,8.13
2023-04-26T02:18:29.816Z,10.67
2023-04-26T02:20:56.899Z,7.93
2023-04-26T02:23:24.514Z,8.07
2023-04-26T02:25:51.808Z,8.30
2023-04-26T02:28:18.853Z,9.33
2023-04-26T02:30:45.792Z,8.10
2023-04-26T02:33:12.726Z,7.77
2023-04-26T02:35:39.782Z,8.30
2023-04-26T02:38:07.910Z,7.73
2023-04-26T02:40:34.895Z,9.00
2023-04-26T02:43:01.880Z,9.33
2023-04-26T02:45:28.894Z,7.13
2023-04-26T02:47:56.119Z,10.37
2023-04-26T02:50:23.800Z,7.93
2023-04-26T02:52:50.864Z,6.97
2023-04-26T02:55:17.851Z,8.77
2023-04-26T02:57:44.862Z,9.20
2023-04-26T03:00:14.230Z,7.87
2023-04-26T03:02:42.022Z,10.40
2023-04-26T03:05:10.646Z,8.97
2023-04-26T03:07:37.975Z,7.90
2023-04-26T03:10:05.841Z,9.40
2023-04-26T03:12:32.896Z,9.17
2023-04-26T03:14:59.921Z,10.73
2023-04-26T03:17:26.917Z,7.20
2023-04-26T03:19:53.936Z,8.57
2023-04-26T03:22:21.205Z,9.93
2023-04-26T03:24:49.168Z,8.53
2023-04-26T03:27:16.565Z,8.60
2023-04-26T03:29:44.212Z,10.30
2023-04-26T03:32:11.530Z,7.67
2023-04-26T03:34:38.607Z,10.50
2023-04-26T03:37:05.645Z,14.30
2023-04-26T03:39:32.600Z,10.40
2023-04-26T03:41:59.646Z,9.33
2023-04-26T03:44:27.172Z,10.40
2023-04-26T03:46:55.052Z,7.83
2023-04-26T03:49:22.120Z,11.93
2023-04-26T03:51:49.165Z,8.33
2023-04-26T03:54:16.210Z,9.07
2023-04-26T03:56:43.233Z,11.07
2023-04-26T03:59:10.479Z,9.47
2023-04-26T04:01:37.973Z,10.43
2023-04-26T04:04:05.513Z,9.20
2023-04-26T04:06:32.992Z,10.67
2023-04-26T04:09:00.065Z,13.67
2023-04-26T04:11:27.055Z,16.60
2023-04-26T04:13:54.041Z,10.30
2023-04-26T04:16:21.891Z,12.57
2023-04-26T04:18:49.037Z,13.97
2023-04-26T04:21:16.012Z,13.27
2023-04-26T04:23:44.348Z,12.87
2023-04-26T04:26:12.690Z,12.47
2023-04-26T04:28:41.510Z,15.23
2023-04-26T04:31:11.724Z,12.03
2023-04-26T04:33:39.225Z,14.40
2023-04-26T04:36:07.052Z,10.53
2023-04-26T04:38:34.288Z,11.23
2023-04-26T04:41:01.313Z,11.90
2023-04-26T04:43:28.436Z,12.53
2023-04-26T04:45:55.613Z,11.37
2023-04-26T04:48:22.710Z,12.77
2023-04-26T04:50:50.765Z,12.33
2023-04-26T04:53:17.921Z,13.27
2023-04-26T04:55:44.976Z,14.10
2023-04-26T04:58:12.333Z,12.77
2023-04-26T05:00:39.745Z,12.53
2023-04-26T05:03:09.923Z,14.20
2023-04-26T05:05:37.234Z,14.03
2023-04-26T05:08:04.504Z,16.27
2023-04-26T05:10:32.098Z,17.43
2023-04-26T05:12:59.160Z,12.37
2023-04-26T05:15:26.502Z,12.30
2023-04-26T05:17:55.830Z,13.50
2023-04-26T05:20:23.130Z,15.53
2023-04-26T05:22:50.139Z,14.37
2023-04-26T05:25:17.706Z,16.77
2023-04-26T05:27:45.951Z,12.70
2023-04-26T05:30:13.843Z,16.30
2023-04-26T05:32:41.698Z,15.40
2023-04-26T05:35:09.181Z,17.17
2023-04-26T05:37:36.395Z,13.93
2023-04-26T05:40:05.171Z,14.87
2023-04-26T05:42:32.458Z,14.50
2023-04-26T05:44:59.644Z,15.27
2023-04-26T05:47:26.753Z,13.53
2023-04-26T05:49:53.842Z,12.20
2023-04-26T05:52:21.432Z,17.40
2023-04-26T05:54:48.492Z,15.10
2023-04-26T05:57:15.684Z,17.67
2023-04-26T05:59:42.643Z,15.80
2023-04-26T06:02:09.747Z,14.03
2023-04-26T06:04:37.293Z,13.90
2023-04-26T06:07:04.328Z,16.90
2023-04-26T06:09:35.870Z,12.80
2023-04-26T06:12:04.015Z,14.80
2023-04-26T06:14:31.248Z,15.07
2023-04-26T06:16:58.537Z,15.60
2023-04-26T06:19:25.940Z,13.50
2023-04-26T06:21:55.344Z,16.97
2023-04-26T06:24:23.646Z,12.67
2023-04-26T06:26:50.613Z,15.57
2023-04-26T06:29:18.028Z,17.67
2023-04-26T06:31:45.005Z,16.50
2023-04-26T06:34:12.043Z,18.60
2023-04-26T06:36:39.041Z,13.27
2023-04-26T06:39:06.330Z,14.50
2023-04-26T06:41:33.418Z,14.20
2023-04-26T06:44:00.427Z,17.83
2023-04-26T06:46:27.517Z,12.77
2023-04-26T06:48:57.577Z,16.25
2023-04-26T06:51:24.702Z,16.65
2023-04-26T06:53:52.834Z,16.98
2023-04-26T06:56:20.141Z,10.95
2023-04-26T06:59:00.879Z,11.38
2023-04-26T07:01:29.473Z,11.30
2023-04-26T07:04:00.176Z,18.17
2023-04-26T07:06:27.503Z,11.50
2023-04-26T07:08:54.669Z,11.88
2023-04-26T07:11:24.600Z,11.85
2023-04-26T07:13:53.398Z,12.00
2023-04-26T07:16:20.793Z,17.67
2023-04-26T07:18:51.769Z,10.25
2023-04-26T07:21:19.001Z,7.57
2023-04-26T07:23:46.148Z,10.15
2023-04-26T07:26:13.321Z,13.75
2023-04-26T07:28:40.373Z,7.30
2023-04-26T07:31:09.579Z,7.22
2023-04-26T07:33:38.101Z,9.02
2023-04-26T07:36:05.895Z,9.00
2023-04-26T07:38:32.859Z,5.93
2023-04-26T07:41:01.305Z,10.23
2023-04-26T07:43:29.898Z,9.45
2023-04-26T07:46:03.281Z,10.25
2023-04-26T07:48:31.162Z,11.60
2023-04-26T07:51:06.813Z,7.85
2023-04-26T07:53:33.862Z,6.78
2023-04-26T07:56:01.086Z,8.38
2023-04-26T07:58:28.079Z,8.55
2023-04-26T08:00:55.191Z,8.50
2023-04-26T08:03:22.359Z,5.90
2023-04-26T08:05:49.895Z,5.85
2023-04-26T08:08:18.892Z,5.75
2023-04-26T08:10:46.488Z,8.45
2023-04-26T08:13:13.512Z,7.97
2023-04-26T08:15:40.650Z,7.53
2023-04-26T08:18:07.817Z,8.95
2023-04-26T08:20:34.922Z,6.35
2023-04-26T08:23:02.041Z,7.45
2023-04-26T08:25:29.359Z,6.40
2023-04-26T08:27:56.422Z,5.88
2023-04-26T08:30:23.688Z,4.88
2023-04-26T08:32:50.885Z,3.70
2023-04-26T08:35:18.128Z,6.90
2023-04-26T08:37:45.112Z,5.57
2023-04-26T08:40:12.199Z,7.10
2023-04-26T08:42:44.097Z,4.65
2023-04-26T08:45:11.771Z,7.22
2023-04-26T08:47:47.929Z,5.68
2023-04-26T08:50:18.759Z,5.40
2023-04-26T08:52:52.212Z,2.78
2023-04-26T08:55:21.857Z,4.22
2023-04-26T08:57:50.827Z,6.05
2023-04-26T09:00:19.692Z,4.50
2023-04-26T09:02:51.220Z,5.47
2023-04-26T09:05:24.928Z,8.30
2023-04-26T09:07:57.318Z,6.13
2023-04-26T09:10:24.914Z,4.93
2023-04-26T09:12:53.639Z,7.70
2023-04-26T09:15:27.776Z,5.63
2023-04-26T09:17:54.933Z,5.15
2023-04-26T09:20:28.484Z,4.85
2023-04-26T09:23:07.425Z,5.38
2023-04-26T09:25:35.259Z,5.03
2023-04-26T09:28:18.365Z,5.75
2023-04-26T09:30:45.543Z,4.82
2023-04-26T09:33:12.709Z,3.70
2023-04-26T09:35:44.168Z,6.38
2023-04-26T09:38:18.661Z,2.83
2023-04-26T09:40:49.189Z,4.70
2023-04-26T09:43:18.676Z,4.10
2023-04-26T09:45:57.732Z,4.13
2023-04-26T09:48:34.382Z,5.43
2023-04-26T09:51:04.294Z,4.97
2023-04-26T09:54:01.337Z,4.07
2023-04-26T09:56:28.469Z,5.90
2023-04-26T09:59:05.319Z,6.07
2023-04-26T10:01:33.427Z,5.57
2023-04-26T10:04:04.804Z,4.32
2023-04-26T10:06:33.049Z,5.32
2023-04-26T10:09:02.543Z,3.33
2023-04-26T10:11:30.850Z,5.13
2023-04-26T10:13:58.649Z,4.80
2023-04-26T10:16:26.151Z,6.80
2023-04-26T10:18:53.382Z,7.95
2023-04-26T10:21:28.914Z,5.15
2023-04-26T10:23:56.683Z,4.03
2023-04-26T10:26:49.499Z,3.85
2023-04-26T10:29:16.578Z,8.82
2023-04-26T10:32:06.604Z,2.67
2023-04-26T10:34:37.042Z,1.90
2023-04-26T10:37:16.147Z,4.43
2023-04-26T10:39:45.472Z,4.65
2023-04-26T10:42:27.689Z,3.33
2023-04-26T10:45:00.041Z,4.45
2023-04-26T10:47:37.107Z,2.65
2023-04-26T10:50:10.727Z,4.50
2023-04-26T10:52:59.162Z,3.63
2023-04-26T10:55:43.030Z,2.33
2023-04-26T10:58:33.463Z,2.95
2023-04-26T11:01:17.673Z,5.18
2023-04-26T11:03:57.135Z,3.95
2023-04-26T11:06:26.877Z,3.25
2023-04-26T11:08:54.806Z,3.75
2023-04-26T11:11:29.053Z,3.67
2023-04-26T11:13:56.730Z,2.92
2023-04-26T11:16:28.857Z,5.05
2023-04-26T11:18:56.395Z,2.70
2023-04-26T11:21:23.473Z,4.82
2023-04-26T11:23:55.133Z,4.38
2023-04-26T11:26:22.392Z,4.45
2023-04-26T11:28:49.785Z,4.97
2023-04-26T11:31:19.448Z,3.70
2023-04-26T11:33:49.839Z,4.40
2023-04-26T11:36:19.643Z,4.22
2023-04-26T11:38:46.887Z,4.45
2023-04-26T11:41:14.023Z,4.45
2023-04-26T11:43:41.252Z,4.90
2023-04-26T11:46:10.066Z,5.07
2023-04-26T11:48:38.994Z,4.55
2023-04-26T11:51:08.406Z,4.75
2023-04-26T11:53:40.346Z,3.15
2023-04-26T11:56:27.839Z,3.85
2023-04-26T11:58:55.159Z,3.63
2023-04-26T12:01:24.995Z,6.10
2023-04-26T12:03:57.970Z,4.35
2023-04-26T12:06:46.263Z,5.22
2023-04-26T12:09:14.040Z,5.43
2023-04-26T12:11:41.309Z,4.82
2023-04-26T12:14:10.141Z,6.07
2023-04-26T12:16:37.789Z,4.45
2023-04-26T12:19:09.850Z,5.10
2023-04-26T12:21:44.435Z,5.70
2023-04-26T12:24:39.114Z,5.68
2023-04-26T12:27:07.858Z,3.53
2023-04-26T12:29:35.794Z,4.40
2023-04-26T12:32:04.181Z,5.03
2023-04-26T12:34:31.602Z,3.95
2023-04-26T12:37:01.159Z,4.13
2023-04-26T12:39:28.252Z,6.35
2023-04-26T12:41:55.398Z,6.32
2023-04-26T12:44:22.873Z,5.20
2023-04-26T12:46:50.341Z,5.07
2023-04-26T12:49:17.496Z,5.20
2023-04-26T12:51:44.538Z,5.90
2023-04-26T12:54:11.546Z,4.07
2023-04-26T12:56:43.750Z,5.13
2023-04-26T12:59:11.125Z,6.63
2023-04-26T13:01:38.355Z,5.07
2023-04-26T13:04:06.035Z,5.70
2023-04-26T13:06:34.009Z,5.00
2023-04-26T13:09:01.700Z,6.35
2023-04-26T13:11:28.801Z,7.78
2023-04-26T13:13:55.975Z,5.80
2023-04-26T13:16:24.409Z,4.97
2023-04-26T13:18:51.670Z,4.47
2023-04-26T13:21:18.871Z,4.65
2023-04-26T13:23:46.799Z,6.25
2023-04-26T13:26:18.972Z,5.47
2023-04-26T13:28:47.450Z,7.20
2023-04-26T13:31:17.075Z,3.88
2023-04-26T13:33:45.785Z,6.40
2023-04-26T13:36:12.844Z,6.05
2023-04-26T13:38:40.538Z,6.13
2023-04-26T13:41:07.913Z,6.10
2023-04-26T13:43:35.232Z,5.97
2023-04-26T13:46:02.372Z,4.80
2023-04-26T13:48:29.799Z,5.13
2023-04-26T13:50:57.048Z,5.43
2023-04-26T13:53:24.194Z,6.30
2023-04-26T13:55:51.196Z,5.53
2023-04-26T13:58:18.443Z,6.75
2023-04-26T14:00:45.685Z,5.25
2023-04-26T14:03:12.970Z,6.15
2023-04-26T14:05:40.036Z,4.90
2023-04-26T14:08:08.190Z,5.30
2023-04-26T14:10:35.223Z,4.25
2023-04-26T14:13:02.301Z,4.07
2023-04-26T14:15:29.301Z,4.13
2023-04-26T14:17:56.340Z,8.10
2023-04-26T14:20:23.367Z,6.53
2023-04-26T14:22:50.505Z,5.78
2023-04-26T14:25:17.684Z,7.65
2023-04-26T14:27:44.697Z,7.18
2023-04-26T14:30:12.099Z,5.82
2023-04-26T14:32:39.267Z,5.53
2023-04-26T14:35:06.592Z,6.95
2023-04-26T14:37:33.654Z,6.72
2023-04-26T14:40:01.050Z,5.47
2023-04-26T14:42:28.588Z,7.15
2023-04-26T14:44:59.041Z,7.50
2023-04-26T14:47:26.282Z,8.45
2023-04-26T14:49:53.358Z,7.25
2023-04-26T14:52:20.882Z,6.10
2023-04-26T14:54:47.885Z,7.57
2023-04-26T14:57:14.866Z,6.65
2023-04-26T14:59:42.244Z,6.20
2023-04-26T15:02:09.251Z,5.60
2023-04-26T15:04:37.830Z,7.63
2023-04-26T15:07:05.080Z,3.80
2023-04-26T15:09:32.466Z,6.15
2023-04-26T15:11:59.486Z,7.72
2023-04-26T15:14:26.981Z,7.07
2023-04-26T15:16:54.755Z,6.82
2023-04-26T15:19:21.960Z,8.88
2023-04-26T15:21:49.472Z,7.93
2023-04-26T15:24:16.482Z,6.63
2023-04-26T15:26:43.554Z,6.35
2023-04-26T15:29:10.668Z,5.20
2023-04-26T15:31:37.731Z,6.68
2023-04-26T15:34:05.340Z,8.75
2023-04-26T15:36:32.440Z,5.18
2023-04-26T15:38:59.512Z,6.32
2023-04-26T15:41:26.735Z,6.70
2023-04-26T15:43:57.300Z,6.25
2023-04-26T15:46:24.426Z,5.88
2023-04-26T15:48:51.480Z,4.63
2023-04-26T15:51:18.739Z,5.30
2023-04-26T15:53:45.765Z,4.93
2023-04-26T15:56:17.862Z,6.85
2023-04-26T15:58:48.484Z,7.15
2023-04-26T16:01:15.779Z,4.65
2023-04-26T16:03:46.517Z,4.55
2023-04-26T16:06:14.610Z,4.88
2023-04-26T16:08:41.794Z,6.65
2023-04-26T16:11:08.782Z,4.13
2023-04-26T16:13:36.117Z,3.72
2023-04-26T16:16:10.675Z,5.72
2023-04-26T16:18:39.774Z,4.55
2023-04-26T16:21:12.237Z,4.60
2023-04-26T16:23:41.851Z,3.75
2023-04-26T16:26:09.567Z,3.72
2023-04-26T16:28:36.795Z,6.15
2023-04-26T16:31:03.965Z,3.38
2023-04-26T16:33:31.018Z,3.15
2023-04-26T16:35:58.139Z,5.30
2023-04-26T16:38:25.159Z,4.97
2023-04-26T16:40:59.694Z,4.85
2023-04-26T16:43:30.720Z,4.53
2023-04-26T16:46:07.023Z,5.22
2023-04-26T16:48:36.178Z,7.88
2023-04-26T16:51:07.351Z,4.28
2023-04-26T16:53:35.982Z,5.03
2023-04-26T16:56:03.876Z,5.32
2023-04-26T16:58:30.988Z,7.88
2023-04-26T17:00:58.027Z,8.48
2023-04-26T17:03:25.356Z,5.18
2023-04-26T17:05:52.793Z,16.75
2023-04-26T17:08:20.214Z,5.90
2023-04-26T17:10:47.974Z,5.28
2023-04-26T17:13:15.267Z,10.18
2023-04-26T17:15:45.141Z,6.13
2023-04-26T17:18:12.299Z,7.63
2023-04-26T17:20:39.449Z,9.20
2023-04-26T17:23:07.981Z,6.03
2023-04-26T17:25:35.015Z,6.00
2023-04-26T17:28:02.053Z,7.93
2023-04-26T17:30:29.102Z,7.60
2023-04-26T17:32:56.430Z,3.95
2023-04-26T17:35:23.532Z,12.35
2023-04-26T17:37:50.713Z,11.70
2023-04-26T17:40:19.676Z,7.68
2023-04-26T17:42:46.917Z,13.55
2023-04-26T17:45:14.754Z,6.78
2023-04-26T17:47:43.040Z,15.65
2023-04-26T17:50:10.790Z,12.75
2023-04-26T17:52:38.390Z,17.63
2023-04-26T17:55:08.314Z,16.48
2023-04-26T17:57:36.436Z,7.15
2023-04-26T18:00:04.659Z,7.18
2023-04-26T18:02:31.979Z,14.05
2023-04-26T18:04:59.166Z,6.30
2023-04-26T18:07:26.594Z,8.02
2023-04-26T18:09:53.561Z,5.50
2023-04-26T18:12:20.806Z,8.63
2023-04-26T18:14:47.941Z,6.30
2023-04-26T18:17:15.395Z,6.00
2023-04-26T18:19:42.687Z,8.82
2023-04-26T18:22:09.917Z,4.97
2023-04-26T18:24:37.419Z,7.45
2023-04-26T18:27:04.593Z,7.75
2023-04-26T18:29:32.087Z,8.55
2023-04-26T18:31:59.358Z,6.88
2023-04-26T18:34:26.965Z,7.20
2023-04-26T18:36:54.163Z,6.38
2023-04-26T18:39:21.388Z,7.93
2023-04-26T18:41:48.979Z,10.10
2023-04-26T18:44:16.234Z,8.30
2023-04-26T18:46:43.479Z,6.05
2023-04-26T18:49:11.118Z,7.53
2023-04-26T18:51:38.208Z,8.07
2023-04-26T18:54:05.549Z,4.97
2023-04-26T18:56:32.658Z,9.25
2023-04-26T18:58:59.747Z,8.77
2023-04-26T19:01:26.971Z,8.45
2023-04-26T19:03:54.278Z,6.45
2023-04-26T19:06:22.287Z,5.10
2023-04-26T19:08:49.390Z,4.43
2023-04-26T19:11:16.465Z,6.50
2023-04-26T19:13:43.495Z,5.15
2023-04-26T19:16:11.228Z,7.57
2023-04-26T19:18:40.662Z,6.60
2023-04-26T19:21:08.406Z,5.82
2023-04-26T19:23:36.698Z,7.20
2023-04-26T19:26:14.384Z,8.57
2023-04-26T19:28:41.713Z,7.53
2023-04-26T19:31:08.808Z,5.65
2023-04-26T19:33:36.968Z,4.93
2023-04-26T19:36:04.446Z,7.32
2023-04-26T19:38:34.160Z,5.55
2023-04-26T19:41:01.843Z,5.00
2023-04-26T19:43:28.868Z,5.47
2023-04-26T19:45:56.066Z,6.28
2023-04-26T19:48:23.101Z,7.13
2023-04-26T19:50:50.148Z,5.72
2023-04-26T19:53:17.251Z,9.13
2023-04-26T19:55:44.311Z,5.53
2023-04-26T19:58:11.517Z,7.70
2023-04-26T20:00:39.922Z,5.85
2023-04-26T20:03:07.201Z,10.10
2023-04-26T20:05:34.568Z,7.45
2023-04-26T20:08:02.068Z,5.25
2023-04-26T20:10:36.229Z,4.40
2023-04-26T20:13:03.239Z,9.75
2023-04-26T20:15:33.907Z,5.22
2023-04-26T20:18:02.402Z,7.07
2023-04-26T20:20:29.577Z,6.07
2023-04-26T20:22:56.608Z,5.85
2023-04-26T20:25:23.756Z,5.47
2023-04-26T20:27:51.014Z,5.35
2023-04-26T20:30:18.105Z,7.10
2023-04-26T20:32:45.132Z,6.50
2023-04-26T20:35:13.718Z,6.60
2023-04-26T20:37:40.894Z,5.55
2023-04-26T20:40:09.292Z,7.18
2023-04-26T20:42:36.386Z,4.28
2023-04-26T20:45:03.956Z,5.60
2023-04-26T20:47:31.413Z,7.83
2023-04-26T20:49:58.576Z,7.23
2023-04-26T20:52:25.660Z,5.90
2023-04-26T20:54:52.683Z,6.43
2023-04-26T20:57:19.710Z,5.17
2023-04-26T20:59:46.765Z,6.23
2023-04-26T21:02:13.925Z,5.70
2023-04-26T21:04:42.810Z,6.90
2023-04-26T21:07:10.874Z,10.13
2023-04-26T21:09:38.176Z,8.20
2023-04-26T21:12:05.760Z,9.03
2023-04-26T21:14:32.898Z,8.70
2023-04-26T21:17:01.426Z,6.23
2023-04-26T21:19:28.576Z,7.00
2023-04-26T21:21:55.684Z,10.10
2023-04-26T21:24:22.817Z,6.93
2023-04-26T21:26:50.054Z,10.27
2023-04-26T21:29:17.119Z,6.57
2023-04-26T21:31:44.369Z,7.10
2023-04-26T21:34:11.634Z,8.40
2023-04-26T21:36:38.787Z,6.27
2023-04-26T21:39:06.048Z,6.53
2023-04-26T21:41:33.024Z,6.00
2023-04-26T21:44:00.127Z,7.53
2023-04-26T21:46:27.163Z,8.03
2023-04-26T21:48:54.122Z,6.43
2023-04-26T21:51:21.201Z,6.17
2023-04-26T21:53:48.249Z,6.17
2023-04-26T21:56:15.305Z,5.80
2023-04-26T21:58:42.803Z,5.57
2023-04-26T22:01:12.324Z,8.13
2023-04-26T22:03:39.977Z,8.60
2023-04-26T22:06:08.646Z,5.03
2023-04-26T22:08:36.002Z,7.00
2023-04-26T22:11:03.326Z,5.50
2023-04-26T22:13:31.397Z,7.47
2023-04-26T22:15:58.507Z,7.83
2023-04-26T22:18:26.467Z,8.20
2023-04-26T22:20:53.946Z,6.40
2023-04-26T22:23:21.170Z,7.57
2023-04-26T22:25:48.199Z,6.60
2023-04-26T22:28:16.697Z,10.03
2023-04-26T22:30:43.772Z,6.80
2023-04-26T22:33:12.265Z,7.50
2023-04-26T22:35:39.715Z,7.70
2023-04-26T22:38:06.763Z,7.87
2023-04-26T22:40:33.863Z,5.77
2023-04-26T22:43:01.076Z,6.93
2023-04-26T22:45:28.235Z,9.83
2023-04-26T22:47:55.370Z,9.27
2023-04-26T22:50:22.731Z,7.70
2023-04-26T22:52:52.171Z,7.03
2023-04-26T22:55:19.211Z,8.53
2023-04-26T22:57:46.998Z,8.83
2023-04-26T23:00:14.839Z,10.67
2023-04-26T23:02:42.163Z,9.10
2023-04-26T23:05:10.330Z,4.90
2023-04-26T23:07:39.044Z,5.83
2023-04-26T23:10:07.829Z,6.53
2023-04-26T23:12:38.422Z,9.47
2023-04-26T23:15:06.291Z,7.73
2023-04-26T23:17:34.241Z,8.83
2023-04-26T23:20:01.794Z,7.77
2023-04-26T23:22:28.796Z,7.70
2023-04-26T23:24:55.933Z,7.80
2023-04-26T23:27:24.762Z,8.77
2023-04-26T23:29:51.872Z,16.57
2023-04-26T23:32:18.901Z,7.87
2023-04-26T23:34:45.964Z,10.00
2023-04-26T23:37:12.957Z,7.77
2023-04-26T23:39:39.971Z,9.00
2023-04-26T23:42:07.126Z,10.87
2023-04-26T23:44:34.127Z,8.50
2023-04-26T23:47:01.229Z,11.13
2023-04-26T23:49:28.614Z,8.03
2023-04-26T23:51:55.745Z,9.13
2023-04-26T23:54:22.836Z,8.60
2023-04-26T23:56:49.860Z,9.80
2023-04-26T23:59:16.963Z,8.43
